• Join FlightAware (Why Join?)
  • Login
  • US Flag 
07:48PM EDT


 

Airport Tracker/Info


-or-


 

Live Flight TrackerFlight Track Log ✈ JA-738J ✈ 13-Apr-2013 ✈ KLAX - RJAA / NRT

Flight Track Log - Related Links

Times and Time Zones

All times are in EDT time to prevent confusion due to time zone crossing. See the JA-738J flight status page for this flight to view local times or setup timezone preferences in your user account.

Time Position Orientation Groundspeed Altitude Reporting Facility
EDT Latitude Longitude Course Direction KTS MPH feet Rate Location/Type
04:42PM 33.9350 -118.4250 262° West 194 223 1,000  Level FlightAware
04:42PM 33.9330 -118.4510 265° West 203 234 2,100 2,160 Climbing FlightAware
04:42PM 33.9300 -118.4810 263° West 209 241 3,000 1,680 Climbing FlightAware
04:43PM 33.9280 -118.5080 265° West 217 250 3,800 1,500 Climbing FlightAware
04:43PM 33.9270 -118.5240 266° West 231 266 4,000 1,500 Climbing FlightAware
04:44PM 33.9230 -118.5670 264° West 261 300 4,800 1,860 Climbing FlightAware
04:44PM 33.9200 -118.6070 265° West 268 308 5,900 2,460 Climbing FlightAware
04:45PM 33.9160 -118.6470 263° West 269 310 7,100 2,580 Climbing FlightAware
04:45PM 33.9110 -118.6960 263° West 279 321 8,300 2,580 Climbing FlightAware
04:45PM 33.9050 -118.7430 261° West 286 329 9,500 2,280 Climbing FlightAware
04:46PM 33.8940 -118.8270 261° West 323 372 10,800 1,320 Climbing FlightAware
04:47PM 33.8920 -118.8690 267° West 326 375 11,200 1,500 Climbing FlightAware
04:47PM 33.9200 -118.9340 297° West 361 415 12,300 2,460 Climbing FlightAware
04:48PM 33.9640 -118.9960 311° West 368 423 13,900 2,280 Climbing FlightAware
04:49PM 34.0150 -119.0680 311° West 375 432 15,600 2,160 Climbing FlightAware
04:49PM 34.0610 -119.1320 311° West 378 435 17,000 1,980 Climbing FlightAware
04:50PM 34.1080 -119.1980 311° West 384 442 18,300 1,860 Climbing FlightAware
04:51PM 34.1600 -119.2720 310° West 397 457 19,700 1,800 Climbing FlightAware
04:51PM 34.2090 -119.3420 310° West 404 465 20,900 1,800 Climbing FlightAware
04:52PM 34.2570 -119.4100 311° West 405 466 22,100 1,740 Climbing FlightAware
04:53PM 34.3120 -119.4880 310° West 409 471 23,400 1,440 Climbing FlightAware
04:53PM 34.3630 -119.5610 310° West 426 490 24,200 1,320 Climbing FlightAware
04:54PM 34.4200 -119.6430 310° West 432 497 25,300 1,380 Climbing FlightAware
04:55PM 34.4730 -119.7190 310° West 432 497 26,200 1,320 Climbing FlightAware
04:56PM 34.5320 -119.8020 311° West 443 510 27,200 1,260 Climbing FlightAware
04:56PM 34.5870 -119.8760 312° West 449 517 28,000 1,200 Climbing FlightAware
04:57PM 34.6440 -119.9520 312° West 454 522 28,800 1,200 Climbing FlightAware
04:58PM 34.7070 -120.0370 312° West 458 527 29,700 840 Climbing FlightAware
04:58PM 34.7640 -120.1150 312° West 459 528 30,000 180 Climbing FlightAware
04:59PM 34.8280 -120.2020 312° West 465 535 30,000  Level FlightAware
05:00PM 34.8880 -120.2830 312° West 472 543 30,000  Level FlightAware
05:00PM 34.9450 -120.3610 312° West 473 544 30,000  Level FlightAware
05:01PM 35.0040 -120.4430 311° West 479 551 30,000  Level FlightAware
05:02PM 35.0720 -120.5340 312° West 479 551 30,000  Level FlightAware
05:03PM 35.1380 -120.6260 311° West 478 550 30,000  Level FlightAware
05:03PM 35.1970 -120.7070 312° West 477 549 30,000  Level FlightAware
05:04PM 35.2530 -120.7850 311° West 478 550 30,000  Level FlightAware
05:05PM 35.3200 -120.8760 312° West 479 551 30,000  Level FlightAware
05:05PM 35.3800 -120.9600 311° West 479 551 30,000  Level FlightAware
05:06PM 35.4340 -121.0350 311° West 478 550 30,000  Level FlightAware
05:06PM 35.4810 -121.1010 311° West 478 550 30,000  Level FlightAware
05:07PM 35.5390 -121.1820 311° West 478 550 30,000  Level FlightAware
05:08PM 35.5950 -121.2690 308° West 476 548 30,000  Level FlightAware
05:09PM 35.6480 -121.3740 302° West 476 548 30,000  Level FlightAware
05:09PM 35.6970 -121.4740 301° West 476 548 30,000  Level FlightAware
05:10PM 35.7430 -121.5720 300° West 476 548 30,000  Level FlightAware
05:11PM 35.7860 -121.6600 301° West 476 548 30,000  Level FlightAware
05:11PM 35.8310 -121.7560 300° West 476 548 30,000  Level FlightAware
05:12PM 35.8750 -121.8480 301° West 477 549 30,000  Level FlightAware
05:13PM 35.9320 -121.9710 300° West 477 549 30,000  Level FlightAware
05:14PM 35.9900 -122.0930 300° West 478 550 30,000  Level FlightAware
05:14PM 36.0400 -122.1990 300° West 476 548 30,000  Level FlightAware
05:15PM 36.0850 -122.2950 300° West 476 548 30,000  Level FlightAware
05:16PM 36.1300 -122.3920 300° West 476 548 30,000  Level FlightAware
05:17PM 36.1750 -122.4890 300° West 475 547 30,000  Level FlightAware
05:17PM 36.2080 -122.5600 300° West 475 547 30,000  Level FlightAware
05:18PM 36.2780 -122.7120 300° West 474 545 30,000  Level FlightAware
05:19PM 36.3210 -122.8040 300° West 474 545 30,000  Level FlightAware
05:20PM 36.3740 -122.9210 299° West 471 542 30,000  Level FlightAware
05:20PM 36.4110 -123.0030 299° West 471 542 30,000  Level FlightAware
05:21PM 36.4470 -123.0840 299° West 471 542 30,000  Level FlightAware
05:22PM 36.4830 -123.1640 299° West 471 542 30,000  Level FlightAware
05:22PM 36.5270 -123.2650 298° West 471 542 30,000  Level FlightAware
05:23PM 36.5630 -123.3460 299° West 471 542 30,000  Level FlightAware
05:24PM 36.5990 -123.4260 299° West 471 542 30,000  Level FlightAware
05:24PM 36.6910 -123.6190 301° West 472 543 30,000  Level FlightAware
05:25PM 36.7230 -123.6920 299° West 472 543 30,000  Level FlightAware
05:26PM 36.7680 -123.7940 299° West 472 543 30,000  Level FlightAware
05:27PM 36.8040 -123.8750 299° West 472 543 30,000  Level FlightAware
05:27PM 36.8400 -123.9560 299° West 472 543 30,000  Level FlightAware
05:28PM 36.8760 -124.0370 299° West 472 543 30,000  Level FlightAware
05:29PM 36.9120 -124.1180 299° West 472 543 30,000  Level FlightAware
05:31PM 37.1260 -124.6040 299° West 472 543 30,000  Level FlightAware
05:32PM 37.1670 -124.7000 298° West 472 543 30,000  Level FlightAware
05:33PM 37.2020 -124.7830 298° West 472 543 30,000  Level FlightAware
05:33PM 37.2360 -124.8650 298° West 472 543 30,000  Level FlightAware
05:34PM 37.2800 -124.9680 298° West 472 543 30,000  Level FlightAware
05:35PM 37.3150 -125.0500 298° West 472 543 30,000  Level FlightAware
05:36PM 37.3500 -125.1330 298° West 472 543 30,000  Level FlightAware
05:36PM 37.3850 -125.2150 298° West 472 543 30,000  Level FlightAware
05:37PM 37.4190 -125.2980 297° West 472 543 30,000  Level FlightAware
05:38PM 37.4630 -125.4010 298° West 472 543 30,000  Level FlightAware
05:38PM 37.4980 -125.4840 298° West 472 543 30,000  Level FlightAware
05:39PM 37.5330 -125.5660 298° West 472 543 30,000  Level FlightAware
05:40PM 37.5680 -125.6490 298° West 472 543 30,000  Level FlightAware
05:40PM 37.6020 -125.7320 297° West 472 543 30,000  Level FlightAware
05:41PM 37.6460 -125.8350 298° West 472 543 30,000 -60 Level FlightAware
05:43PM 37.8036 -126.1964 298° West 471 542 29,900  Descending Oakland Center
05:44PM 37.8633 -126.3425 297° West 470 541 30,000  Climbing Oakland Center
05:45PM 37.9372 -126.5203 298° West 472 543 29,900 -60 Descending Oakland Center
05:46PM 37.9967 -126.6656 297° West 469 540 29,900  Level Oakland Center
05:47PM 38.0567 -126.8131 297° West 470 541 29,900  Level Oakland Center
05:48PM 38.1161 -126.9586 288° West 467 537 30,000 60 Climbing Oakland Center
05:48PM 38.1333 -127.0000 288° West 472 543 30,000 -120 Level Oakland Oceanic (ODAPS)
05:49PM 38.1636 -127.1136 291° West 471 542 29,900  Descending Oakland Center
05:51PM 38.2267 -127.4084 287° West  Level FlightAware Approximate
05:58PM 38.4805 -128.4874 287° West  Level FlightAware Approximate
05:59PM 38.5159 -128.6422 286° West  Level FlightAware Approximate
06:00PM 38.5511 -128.7971 286° West  Level FlightAware Approximate
06:01PM 38.5862 -128.9521 286° West  Level FlightAware Approximate
06:02PM 38.6210 -129.1073 286° West  Level FlightAware Approximate
06:03PM 38.6556 -129.2627 286° West  Level FlightAware Approximate
06:04PM 38.6900 -129.4182 286° West  Level FlightAware Approximate
06:05PM 38.7242 -129.5739 286° West  Level FlightAware Approximate
06:05PM 38.7667 -129.7000 286° West 465 535 30,300  Level Oakland Oceanic (ODAPS)
06:06PM 38.7582 -129.7297 286° West  Level FlightAware Approximate
06:07PM 38.7920 -129.8856 286° West  Level FlightAware Approximate
06:07PM 38.8333 -130.0000 289° West 460 529 32,000  Level Oakland Oceanic (ODAPS)
06:08PM 38.8278 -130.0408 289° West  Level FlightAware Approximate
06:09PM 38.8685 -130.1904 289° West  Level FlightAware Approximate
06:10PM 38.9089 -130.3401 289° West  Level FlightAware Approximate
06:11PM 38.9959 -130.6154 289° West 465 535 30,300  Level FlightAware Transoceanic
06:12PM 39.0361 -130.7697 288° West 465 535 30,300 840 Level FlightAware Transoceanic
06:13PM 39.0760 -130.9242 288° West 460 529 32,000 840 Climbing FlightAware Transoceanic
06:14PM 39.1158 -131.0788 288° West 460 529 32,000  Level FlightAware Transoceanic
06:15PM 39.1553 -131.2336 288° West 460 529 32,000  Level FlightAware Transoceanic
06:16PM 39.1946 -131.3886 288° West 460 529 32,000  Level FlightAware Transoceanic
06:17PM 39.2337 -131.5438 288° West 460 529 32,000  Level FlightAware Transoceanic
06:18PM 39.2727 -131.6991 288° West 460 529 32,000  Level FlightAware Transoceanic
06:19PM 39.3114 -131.8546 288° West 460 529 32,000  Level FlightAware Transoceanic
06:20PM 39.3499 -132.0103 288° West 460 529 32,000  Level FlightAware Transoceanic
06:21PM 39.3882 -132.1662 288° West 460 529 32,000  Level FlightAware Transoceanic
06:22PM 39.4263 -132.3222 287° West 460 529 32,000  Level FlightAware Transoceanic
06:23PM 39.4641 -132.4784 287° West 460 529 32,000  Level FlightAware Transoceanic
06:24PM 39.5018 -132.6347 287° West 460 529 32,000  Level FlightAware Transoceanic
06:25PM 39.5393 -132.7913 287° West 460 529 32,000  Level FlightAware Transoceanic
06:26PM 39.5765 -132.9480 287° West 460 529 32,000  Level FlightAware Transoceanic
06:27PM 39.6135 -133.1048 287° West 460 529 32,000  Level FlightAware Transoceanic
06:28PM 39.6504 -133.2619 287° West 460 529 32,000  Level FlightAware Transoceanic
06:29PM 39.6870 -133.4191 287° West 460 529 32,000  Level FlightAware Transoceanic
06:30PM 39.7234 -133.5764 287° West 460 529 32,000  Level FlightAware Transoceanic
06:31PM 39.7596 -133.7340 287° West 460 529 32,000  Level FlightAware Transoceanic
06:32PM 39.7956 -133.8917 286° West 460 529 32,000  Level FlightAware Transoceanic
06:32PM 39.7833 -133.8500 287° West 457 526 32,000  Level Oakland Oceanic (ODAPS)
06:33PM 39.8313 -134.0495 286° West 460 529 32,000  Level FlightAware Transoceanic
06:34PM 39.8669 -134.2076 286° West 460 529 32,000  Level FlightAware Transoceanic
06:35PM 39.9022 -134.3658 286° West 460 529 32,000  Level FlightAware Transoceanic
06:36PM 39.9373 -134.5241 286° West 460 529 32,000  Level FlightAware Transoceanic
06:37PM 39.9722 -134.6826 286° West 460 529 32,000  Level FlightAware Transoceanic
06:38PM 39.9969 -134.8060 286° West 457 526 32,000  Level FlightAware Transoceanic
06:39PM 40.0317 -134.9659 286° West 457 526 32,000  Level FlightAware Transoceanic
06:40PM 40.0663 -135.1259 286° West 457 526 32,000  Level FlightAware Transoceanic
06:41PM 40.1007 -135.2861 286° West 457 526 32,000  Level FlightAware Transoceanic
06:42PM 40.1349 -135.4465 286° West 457 526 32,000  Level FlightAware Transoceanic
06:43PM 40.1689 -135.6071 285° West 457 526 32,000  Level FlightAware Transoceanic
06:44PM 40.2026 -135.7678 285° West 457 526 32,000  Level FlightAware Transoceanic
06:45PM 40.2361 -135.9287 285° West 457 526 32,000  Level FlightAware Transoceanic
06:46PM 40.2694 -136.0897 285° West 457 526 32,000  Level FlightAware Transoceanic
06:47PM 40.3024 -136.2509 285° West 457 526 32,000  Level FlightAware Transoceanic
06:48PM 40.3353 -136.4122 285° West 457 526 32,000  Level FlightAware Transoceanic
06:49PM 40.3679 -136.5737 285° West 457 526 32,000  Level FlightAware Transoceanic
06:50PM 40.4002 -136.7354 285° West 457 526 32,000  Level FlightAware Transoceanic
06:51PM 40.4324 -136.8972 285° West 457 526 32,000  Level FlightAware Transoceanic
06:52PM 40.4644 -137.0592 284° West 457 526 32,000  Level FlightAware Transoceanic
06:53PM 40.4961 -137.2213 284° West 457 526 32,000  Level FlightAware Transoceanic
06:54PM 40.5275 -137.3835 284° West 457 526 32,000  Level FlightAware Transoceanic
06:55PM 40.5588 -137.5460 284° West 457 526 32,000  Level FlightAware Transoceanic
06:56PM 40.5898 -137.7086 284° West 457 526 32,000  Level FlightAware Transoceanic
06:57PM 40.6206 -137.8713 284° West 457 526 32,000  Level FlightAware Transoceanic
06:58PM 40.6512 -138.0341 284° West 457 526 32,000  Level FlightAware Transoceanic
06:58PM 40.6667 -138.0833 284° West 458 527 32,000  Level Oakland Oceanic (ODAPS)
06:59PM 40.6815 -138.1972 284° West 457 526 32,000  Level FlightAware Transoceanic
07:00PM 40.7116 -138.3603 284° West 457 526 32,000  Level FlightAware Transoceanic
07:01PM 40.7415 -138.5237 284° West 457 526 32,000  Level FlightAware Transoceanic
07:02PM 40.7711 -138.6871 283° West 457 526 32,000  Level FlightAware Transoceanic
07:03PM 40.8006 -138.8507 283° West 457 526 32,000  Level FlightAware Transoceanic
07:04PM 40.8298 -139.0145 283° West 457 526 32,000  Level FlightAware Transoceanic
07:05PM 40.8524 -139.1264 283° West 458 527 32,000  Level FlightAware Transoceanic
07:06PM 40.8825 -139.3008 283° West 458 527 32,000  Level FlightAware Transoceanic
07:07PM 40.9122 -139.4754 283° West 458 527 32,000  Level FlightAware Transoceanic
07:08PM 40.9418 -139.6501 283° West 458 527 32,000  Level FlightAware Transoceanic
07:09PM 40.9710 -139.8250 282° West 458 527 32,000  Level FlightAware Transoceanic
07:10PM 41.0000 -140.0000 288° West 458 527 32,000  Level FlightAware Transoceanic
07:10PM 41.0000 -140.0000 288° West 468 539 32,000  Level Oakland Oceanic (ODAPS)
07:11PM 41.0403 -140.1613 288° West 458 527 32,000  Level FlightAware Transoceanic
07:12PM 41.0804 -140.3227 288° West 458 527 32,000  Level FlightAware Transoceanic
07:13PM 41.1202 -140.4844 288° West 458 527 32,000  Level FlightAware Transoceanic
07:14PM 41.1598 -140.6463 288° West 458 527 32,000  Level FlightAware Transoceanic
07:15PM 41.1992 -140.8083 288° West 458 527 32,000  Level FlightAware Transoceanic
07:16PM 41.2025 -140.8221 288° West 468 539 32,000  Level FlightAware Transoceanic
07:17PM 41.2424 -140.9871 288° West 468 539 32,000  Level FlightAware Transoceanic
07:18PM 41.2819 -141.1523 288° West 468 539 32,000  Level FlightAware Transoceanic
07:19PM 41.3213 -141.3177 288° West 468 539 32,000  Level FlightAware Transoceanic
07:20PM 41.3604 -141.4834 287° West 468 539 32,000  Level FlightAware Transoceanic
07:21PM 41.3992 -141.6492 287° West 468 539 32,000  Level FlightAware Transoceanic
07:22PM 41.4379 -141.8152 287° West 468 539 32,000  Level FlightAware Transoceanic
07:23PM 41.4762 -141.9814 287° West 468 539 32,000  Level FlightAware Transoceanic
07:24PM 41.5144 -142.1478 287° West 468 539 32,000  Level FlightAware Transoceanic
07:25PM 41.5523 -142.3144 287° West 468 539 32,000  Level FlightAware Transoceanic
07:25PM 41.5833 -142.4167 287° West 469 540 32,000  Level Oakland Oceanic (ODAPS)
07:26PM 41.5899 -142.4812 287° West 468 539 32,000  Level FlightAware Transoceanic
07:27PM 41.6274 -142.6482 287° West 468 539 32,000  Level FlightAware Transoceanic
07:28PM 41.6645 -142.8154 287° West 468 539 32,000  Level FlightAware Transoceanic
07:29PM 41.7015 -142.9828 286° West 468 539 32,000  Level FlightAware Transoceanic
07:30PM 41.7382 -143.1503 286° West 468 539 32,000  Level FlightAware Transoceanic
07:31PM 41.8008 -143.4074 286° West 469 540 32,000  Level FlightAware Transoceanic
07:32PM 41.8362 -143.5732 286° West 469 540 32,000  Level FlightAware Transoceanic
07:33PM 41.8713 -143.7392 286° West 469 540 32,000  Level FlightAware Transoceanic
07:34PM 41.9063 -143.9053 286° West 469 540 32,000  Level FlightAware Transoceanic
07:35PM 41.9410 -144.0716 286° West 469 540 32,000  Level FlightAware Transoceanic
07:36PM 41.9754 -144.2381 285° West 469 540 32,000  Level FlightAware Transoceanic
07:37PM 42.0096 -144.4048 285° West 469 540 32,000  Level FlightAware Transoceanic
07:38PM 42.0436 -144.5717 285° West 469 540 32,000  Level FlightAware Transoceanic
07:39PM 42.0773 -144.7387 285° West 469 540 32,000  Level FlightAware Transoceanic
07:40PM 42.1108 -144.9059 285° West 469 540 32,000  Level FlightAware Transoceanic
07:41PM 42.1441 -145.0733 285° West 469 540 32,000  Level FlightAware Transoceanic
07:42PM 42.1771 -145.2409 285° West 469 540 32,000  Level FlightAware Transoceanic
07:43PM 42.2098 -145.4086 285° West 469 540 32,000  Level FlightAware Transoceanic
07:44PM 42.2423 -145.5766 285° West 469 540 32,000  Level FlightAware Transoceanic
07:45PM 42.2746 -145.7447 284° West 469 540 32,000  Level FlightAware Transoceanic
07:46PM 42.3066 -145.9129 284° West 469 540 32,000  Level FlightAware Transoceanic
07:47PM 42.3384 -146.0813 284° West 469 540 32,000  Level FlightAware Transoceanic
07:48PM 42.3699 -146.2500 284° West 469 540 32,000  Level FlightAware Transoceanic
07:49PM 42.4012 -146.4187 284° West 469 540 32,000  Level FlightAware Transoceanic
07:50PM 42.4322 -146.5876 284° West 469 540 32,000  Level FlightAware Transoceanic
07:51PM 42.4630 -146.7568 284° West 469 540 32,000  Level FlightAware Transoceanic
07:52PM 42.4935 -146.9260 284° West 469 540 32,000  Level FlightAware Transoceanic
07:52PM 42.4833 -146.8833 284° West 473 544 32,000  Level Oakland Oceanic (ODAPS)
07:53PM 42.5238 -147.0955 284° West 469 540 32,000  Level FlightAware Transoceanic
07:54PM 42.5538 -147.2651 283° West 469 540 32,000  Level FlightAware Transoceanic
07:55PM 42.5836 -147.4348 283° West 469 540 32,000  Level FlightAware Transoceanic
07:56PM 42.6132 -147.6047 283° West 469 540 32,000  Level FlightAware Transoceanic
07:57PM 42.6424 -147.7748 283° West 469 540 32,000  Level FlightAware Transoceanic
07:58PM 42.6649 -147.9164 283° West 473 544 32,000  Level FlightAware Transoceanic
07:59PM 42.6943 -148.0892 283° West 473 544 32,000  Level FlightAware Transoceanic
08:00PM 42.7234 -148.2621 283° West 473 544 32,000  Level FlightAware Transoceanic
08:01PM 42.7522 -148.4352 283° West 473 544 32,000  Level FlightAware Transoceanic
08:02PM 42.7808 -148.6084 283° West 473 544 32,000  Level FlightAware Transoceanic
08:03PM 42.8091 -148.7818 282° West 473 544 32,000  Level FlightAware Transoceanic
08:04PM 42.8372 -148.9554 282° West 473 544 32,000  Level FlightAware Transoceanic
08:05PM 42.8650 -149.1291 282° West 473 544 32,000  Level FlightAware Transoceanic
08:06PM 42.8925 -149.3030 282° West 473 544 32,000  Level FlightAware Transoceanic
08:07PM 42.9198 -149.4770 282° West 473 544 32,000  Level FlightAware Transoceanic
08:08PM 42.9468 -149.6512 282° West 473 544 32,000  Level FlightAware Transoceanic
08:09PM 42.9735 -149.8255 282° West 473 544 32,000  Level FlightAware Transoceanic
08:10PM 43.0000 -150.0000 296° West 473 544 32,000 720 Level FlightAware Transoceanic
08:10PM 43.0000 -150.0000 296° West 477 549 33,000  Climbing Oakland Oceanic (ODAPS)
08:11PM 43.0589 -150.1636 296° West 473 544 32,000 -600 Descending FlightAware Transoceanic
08:12PM 43.1175 -150.3275 296° West 473 544 32,000  Level FlightAware Transoceanic
08:13PM 43.1759 -150.4917 296° West 473 544 32,000  Level FlightAware Transoceanic
08:14PM 43.2341 -150.6562 296° West 473 544 32,000  Level FlightAware Transoceanic
08:15PM 43.2920 -150.8211 296° West 473 544 32,000 480 Level FlightAware Transoceanic
08:16PM 43.3439 -150.9694 296° West 477 549 33,000 480 Climbing FlightAware Transoceanic
08:17PM 43.4004 -151.1320 295° West 477 549 33,000  Level FlightAware Transoceanic
08:18PM 43.4566 -151.2950 295° West 477 549 33,000  Level FlightAware Transoceanic
08:18PM 43.5000 -151.4000 295° West 465 535 33,000  Level Oakland Oceanic (ODAPS)
08:19PM 43.5127 -151.4582 295° West 477 549 33,000  Level FlightAware Transoceanic
08:20PM 43.5685 -151.6217 295° West 477 549 33,000  Level FlightAware Transoceanic
08:21PM 43.6241 -151.7856 295° West 477 549 33,000  Level FlightAware Transoceanic
08:22PM 43.6794 -151.9497 295° West 477 549 33,000  Level FlightAware Transoceanic
08:23PM 43.7346 -152.1142 295° West 477 549 33,000  Level FlightAware Transoceanic
08:24PM 43.7894 -152.2789 295° West 477 549 33,000  Level FlightAware Transoceanic
08:25PM 43.8269 -152.3727 295° West 465 535 33,000  Level FlightAware Transoceanic
08:26PM 43.8806 -152.5359 294° West 465 535 33,000  Level FlightAware Transoceanic
08:27PM 43.9340 -152.6993 294° West 465 535 33,000  Level FlightAware Transoceanic
08:28PM 43.9872 -152.8631 294° West 465 535 33,000  Level FlightAware Transoceanic
08:29PM 44.0402 -153.0271 294° West 465 535 33,000  Level FlightAware Transoceanic
08:30PM 44.0929 -153.1914 294° West 465 535 33,000  Level FlightAware Transoceanic
08:31PM 44.1454 -153.3560 294° West 465 535 33,000  Level FlightAware Transoceanic
08:32PM 44.1977 -153.5209 294° West 465 535 33,000  Level FlightAware Transoceanic
08:33PM 44.2497 -153.6861 294° West 465 535 33,000  Level FlightAware Transoceanic
08:34PM 44.3015 -153.8516 294° West 465 535 33,000  Level FlightAware Transoceanic
08:35PM 44.3531 -154.0174 293° West 465 535 33,000  Level FlightAware Transoceanic
08:36PM 44.4044 -154.1835 293° West 465 535 33,000  Level FlightAware Transoceanic
08:37PM 44.4554 -154.3498 293° West 465 535 33,000  Level FlightAware Transoceanic
08:38PM 44.5063 -154.5165 293° West 465 535 33,000  Level FlightAware Transoceanic
08:39PM 44.5569 -154.6834 293° West 465 535 33,000  Level FlightAware Transoceanic
08:40PM 44.6072 -154.8507 293° West 465 535 33,000  Level FlightAware Transoceanic
08:41PM 44.6573 -155.0182 293° West 465 535 33,000  Level FlightAware Transoceanic
08:42PM 44.7072 -155.1860 293° West 465 535 33,000  Level FlightAware Transoceanic
08:43PM 44.7568 -155.3541 292° West 465 535 33,000  Level FlightAware Transoceanic
08:44PM 44.8061 -155.5225 292° West 465 535 33,000  Level FlightAware Transoceanic
08:45PM 44.8552 -155.6912 292° West 465 535 33,000  Level FlightAware Transoceanic
08:45PM 44.8667 -155.7667 292° West 466 536 33,000  Level Oakland Oceanic (ODAPS)
08:46PM 44.9041 -155.8602 292° West 465 535 33,000  Level FlightAware Transoceanic
08:47PM 44.9527 -156.0294 292° West 465 535 33,000  Level FlightAware Transoceanic
08:48PM 45.0011 -156.1989 292° West 465 535 33,000  Level FlightAware Transoceanic
08:49PM 45.0492 -156.3688 292° West 465 535 33,000  Level FlightAware Transoceanic
08:50PM 45.0970 -156.5389 292° West 465 535 33,000  Level FlightAware Transoceanic
08:51PM 45.1446 -156.7093 292° West 465 535 33,000  Level FlightAware Transoceanic
08:52PM 45.1997 -156.9348 292° West 466 536 33,000  Level FlightAware Transoceanic
08:53PM 45.2463 -157.1028 291° West 466 536 33,000  Level FlightAware Transoceanic
08:54PM 45.2926 -157.2710 291° West 466 536 33,000  Level FlightAware Transoceanic
08:55PM 45.3387 -157.4395 291° West 466 536 33,000  Level FlightAware Transoceanic
08:56PM 45.3846 -157.6084 291° West 466 536 33,000  Level FlightAware Transoceanic
08:57PM 45.4302 -157.7774 291° West 466 536 33,000  Level FlightAware Transoceanic
08:58PM 45.4755 -157.9468 291° West 466 536 33,000  Level FlightAware Transoceanic
08:59PM 45.5206 -158.1164 291° West 466 536 33,000  Level FlightAware Transoceanic
09:00PM 45.5655 -158.2863 291° West 466 536 33,000  Level FlightAware Transoceanic
09:01PM 45.6101 -158.4565 290° West 466 536 33,000  Level FlightAware Transoceanic
09:02PM 45.6544 -158.6269 290° West 466 536 33,000  Level FlightAware Transoceanic
09:03PM 45.6985 -158.7976 290° West 466 536 33,000  Level FlightAware Transoceanic
09:04PM 45.7424 -158.9686 290° West 466 536 33,000  Level FlightAware Transoceanic
09:05PM 45.7859 -159.1398 290° West 466 536 33,000  Level FlightAware Transoceanic
09:06PM 45.8293 -159.3113 290° West 466 536 33,000  Level FlightAware Transoceanic
09:07PM 45.8723 -159.4831 290° West 466 536 33,000  Level FlightAware Transoceanic
09:08PM 45.9151 -159.6551 290° West 466 536 33,000  Level FlightAware Transoceanic
09:09PM 45.9577 -159.8274 289° West 466 536 33,000  Level FlightAware Transoceanic
09:10PM 46.0000 -160.0000 298° West 466 536 33,000  Level FlightAware Transoceanic
09:10PM 46.0000 -160.0000 298° West 478 550 33,000  Level Oakland Oceanic (ODAPS)
09:11PM 46.0620 -160.1715 297° West 466 536 33,000  Level FlightAware Transoceanic
09:12PM 46.1238 -160.3434 297° West 466 536 33,000  Level FlightAware Transoceanic
09:12PM 46.1167 -160.3167 297° West 480 552 33,000  Level Oakland Oceanic (ODAPS)
09:13PM 46.1853 -160.5157 297° West 466 536 33,000  Level FlightAware Transoceanic
09:14PM 46.2466 -160.6884 297° West 466 536 33,000  Level FlightAware Transoceanic
09:15PM 46.3076 -160.8614 297° West 466 536 33,000  Level FlightAware Transoceanic
09:16PM 46.3618 -161.0162 297° West 478 550 33,000  Level FlightAware Transoceanic
09:17PM 46.4212 -161.1869 297° West 478 550 33,000  Level FlightAware Transoceanic
09:18PM 46.4762 -161.3395 297° West 480 552 33,000  Level FlightAware Transoceanic
09:19PM 46.5352 -161.5112 296° West 480 552 33,000  Level FlightAware Transoceanic
09:20PM 46.5940 -161.6834 296° West 480 552 33,000  Level FlightAware Transoceanic
09:21PM 46.6525 -161.8559 296° West 480 552 33,000  Level FlightAware Transoceanic
09:22PM 46.7108 -162.0288 296° West 480 552 33,000  Level FlightAware Transoceanic
09:23PM 46.7687 -162.2020 296° West 480 552 33,000  Level FlightAware Transoceanic
09:24PM 46.8265 -162.3757 296° West 480 552 33,000  Level FlightAware Transoceanic
09:25PM 46.8839 -162.5497 296° West 480 552 33,000  Level FlightAware Transoceanic
09:26PM 46.9412 -162.7241 296° West 480 552 33,000  Level FlightAware Transoceanic
09:27PM 46.9981 -162.8988 295° West 480 552 33,000  Level FlightAware Transoceanic
09:28PM 47.0548 -163.0739 295° West 480 552 33,000  Level FlightAware Transoceanic
09:29PM 47.1112 -163.2494 295° West 480 552 33,000  Level FlightAware Transoceanic
09:30PM 47.1673 -163.4253 295° West 480 552 33,000  Level FlightAware Transoceanic
09:31PM 47.2232 -163.6015 295° West 480 552 33,000  Level FlightAware Transoceanic
09:32PM 47.2788 -163.7782 295° West 480 552 33,000  Level FlightAware Transoceanic
09:33PM 47.3341 -163.9551 295° West 480 552 33,000  Level FlightAware Transoceanic
09:34PM 47.3891 -164.1325 295° West 480 552 33,000  Level FlightAware Transoceanic
09:35PM 47.4439 -164.3102 294° West 480 552 33,000  Level FlightAware Transoceanic
09:36PM 47.4984 -164.4883 294° West 480 552 33,000  Level FlightAware Transoceanic
09:37PM 47.5526 -164.6667 294° West 480 552 33,000  Level FlightAware Transoceanic
09:38PM 47.6066 -164.8456 294° West 480 552 33,000  Level FlightAware Transoceanic
09:38PM 47.6500 -164.9833 294° West 485 558 33,000  Level Oakland Oceanic (ODAPS)
09:39PM 47.6602 -165.0248 294° West 480 552 33,000  Level FlightAware Transoceanic
09:40PM 47.7136 -165.2043 294° West 480 552 33,000  Level FlightAware Transoceanic
09:41PM 47.7667 -165.3843 294° West 480 552 33,000  Level FlightAware Transoceanic
09:42PM 47.8196 -165.5646 293° West 480 552 33,000  Level FlightAware Transoceanic
09:43PM 47.8721 -165.7452 293° West 480 552 33,000  Level FlightAware Transoceanic
09:44PM 47.9244 -165.9263 293° West 480 552 33,000  Level FlightAware Transoceanic
09:45PM 47.9687 -166.0751 293° West 485 558 33,000  Level FlightAware Transoceanic
09:46PM 48.0208 -166.2583 293° West 485 558 33,000  Level FlightAware Transoceanic
09:47PM 48.0726 -166.4419 293° West 485 558 33,000  Level FlightAware Transoceanic
09:48PM 48.1241 -166.6259 293° West 485 558 33,000  Level FlightAware Transoceanic
09:49PM 48.1753 -166.8103 293° West 485 558 33,000  Level FlightAware Transoceanic
09:50PM 48.2262 -166.9950 292° West 485 558 33,000  Level FlightAware Transoceanic
09:51PM 48.2769 -167.1801 292° West 485 558 33,000  Level FlightAware Transoceanic
09:52PM 48.3272 -167.3656 292° West 485 558 33,000  Level FlightAware Transoceanic
09:53PM 48.3773 -167.5514 292° West 485 558 33,000  Level FlightAware Transoceanic
09:54PM 48.4270 -167.7376 292° West 485 558 33,000  Level FlightAware Transoceanic
09:55PM 48.4764 -167.9242 292° West 485 558 33,000  Level FlightAware Transoceanic
09:56PM 48.5256 -168.1111 292° West 485 558 33,000  Level FlightAware Transoceanic
09:57PM 48.5744 -168.2984 291° West 485 558 33,000  Level FlightAware Transoceanic
09:58PM 48.6229 -168.4860 291° West 485 558 33,000  Level FlightAware Transoceanic
09:59PM 48.6711 -168.6740 291° West 485 558 33,000  Level FlightAware Transoceanic
10:00PM 48.7190 -168.8624 291° West 485 558 33,000  Level FlightAware Transoceanic
10:01PM 48.7666 -169.0511 291° West 485 558 33,000  Level FlightAware Transoceanic
10:02PM 48.8139 -169.2401 291° West 485 558 33,000  Level FlightAware Transoceanic
10:03PM 48.8609 -169.4296 291° West 485 558 33,000  Level FlightAware Transoceanic
10:04PM 48.9076 -169.6194 290° West 485 558 33,000  Level FlightAware Transoceanic
10:05PM 48.9539 -169.8095 290° West 485 558 33,000  Level FlightAware Transoceanic
10:05PM 49.0000 -170.0000 274° West 492 566 33,000  Level Oakland Oceanic (ODAPS)
10:05PM 49.0000 -170.0000 274° West 492 566 33,000  Level Oakland Oceanic (ODAPS)
10:06PM 49.0000 -170.0000 274° West 485 558 33,000  Level FlightAware Transoceanic
10:06PM 49.0000 -170.0833 274° West 490 564 33,000  Level Oakland Oceanic (ODAPS)
10:07PM 49.0083 -170.1955 274° West 485 558 33,000  Level FlightAware Transoceanic
10:08PM 49.0163 -170.3911 273° West 485 558 33,000  Level FlightAware Transoceanic
10:09PM 49.0239 -170.5868 273° West 485 558 33,000  Level FlightAware Transoceanic
10:10PM 49.0312 -170.7825 273° West 485 558 33,000  Level FlightAware Transoceanic
10:11PM 49.0473 -171.2476 273° West 492 566 33,000  Level FlightAware Transoceanic
10:12PM 49.0465 -171.3206 273° West 490 564 33,000  Level FlightAware Transoceanic
10:13PM 49.0530 -171.5270 273° West 490 564 33,000  Level FlightAware Transoceanic
10:14PM 49.0590 -171.7335 273° West 490 564 33,000  Level FlightAware Transoceanic
10:15PM 49.0648 -171.9400 272° West 490 564 33,000  Level FlightAware Transoceanic
10:16PM 49.0701 -172.1466 272° West 490 564 33,000  Level FlightAware Transoceanic
10:17PM 49.0751 -172.3532 272° West 490 564 33,000  Level FlightAware Transoceanic
10:18PM 49.0797 -172.5598 272° West 490 564 33,000  Level FlightAware Transoceanic
10:19PM 49.0840 -172.7665 272° West 490 564 33,000  Level FlightAware Transoceanic
10:20PM 49.0878 -172.9733 272° West 490 564 33,000  Level FlightAware Transoceanic
10:21PM 49.0914 -173.1800 271° West 490 564 33,000  Level FlightAware Transoceanic
10:22PM 49.0945 -173.3868 271° West 490 564 33,000  Level FlightAware Transoceanic
10:23PM 49.0973 -173.5936 271° West 490 564 33,000  Level FlightAware Transoceanic
10:24PM 49.0997 -173.8004 271° West 490 564 33,000  Level FlightAware Transoceanic
10:25PM 49.1017 -174.0073 271° West 490 564 33,000  Level FlightAware Transoceanic
10:26PM 49.1034 -174.2141 271° West 490 564 33,000  Level FlightAware Transoceanic
10:27PM 49.1047 -174.4210 270° West 490 564 33,000  Level FlightAware Transoceanic
10:28PM 49.1056 -174.6279 270° West 490 564 33,000  Level FlightAware Transoceanic
10:29PM 49.1062 -174.8348 270° West 490 564 33,000  Level FlightAware Transoceanic
10:30PM 49.1063 -175.0417 270° West 490 564 33,000  Level FlightAware Transoceanic
10:31PM 49.1062 -175.2486 270° West 490 564 33,000  Level FlightAware Transoceanic
10:32PM 49.1056 -175.4554 270° West 490 564 33,000  Level FlightAware Transoceanic
10:32PM 49.1000 -175.5167 270° West 477 549 33,000  Level Oakland Oceanic (ODAPS)
10:33PM 49.1047 -175.6623 270° West 490 564 33,000  Level FlightAware Transoceanic
10:34PM 49.1034 -175.8692 269° West 490 564 33,000  Level FlightAware Transoceanic
10:35PM 49.1017 -176.0761 269° West 490 564 33,000  Level FlightAware Transoceanic
10:36PM 49.0997 -176.2829 269° West 490 564 33,000  Level FlightAware Transoceanic
10:37PM 49.0973 -176.4897 269° West 490 564 33,000  Level FlightAware Transoceanic
10:38PM 49.0900 -176.7410 269° West 477 549 33,000  Level FlightAware Transoceanic
10:39PM 49.0870 -176.9449 269° West 477 549 33,000  Level FlightAware Transoceanic
10:40PM 49.0837 -177.1489 269° West 477 549 33,000  Level FlightAware Transoceanic
10:41PM 49.0801 -177.3528 268° West 477 549 33,000  Level FlightAware Transoceanic
10:42PM 49.0761 -177.5567 268° West 477 549 33,000  Level FlightAware Transoceanic
10:43PM 49.0717 -177.7606 268° West 477 549 33,000  Level FlightAware Transoceanic
10:44PM 49.0670 -177.9644 268° West 477 549 33,000  Level FlightAware Transoceanic
10:45PM 49.0619 -178.1682 268° West 477 549 33,000  Level FlightAware Transoceanic
10:46PM 49.0564 -178.3719 268° West 477 549 33,000  Level FlightAware Transoceanic
10:47PM 49.0507 -178.5757 267° West 477 549 33,000  Level FlightAware Transoceanic
10:48PM 49.0445 -178.7793 267° West 477 549 33,000  Level FlightAware Transoceanic
10:49PM 49.0380 -178.9829 267° West 477 549 33,000  Level FlightAware Transoceanic
10:50PM 49.0311 -179.1864 267° West 477 549 33,000  Level FlightAware Transoceanic
10:51PM 49.0238 -179.3899 267° West 477 549 33,000  Level FlightAware Transoceanic
10:52PM 49.0163 -179.5934 267° West 477 549 33,000  Level FlightAware Transoceanic
10:53PM 49.0083 -179.7967 267° West 477 549 33,000  Level FlightAware Transoceanic
10:54PM 49.0000 -180.0000 265° West 477 549 33,000  Level FlightAware Transoceanic
10:55PM 48.9892 179.8081 265° West 477 549 33,000 540 Level FlightAware Transoceanic
10:55PM 49.0000 180.0000 265° West 454 522 34,000  Climbing Oakland Oceanic (ODAPS)
10:56PM 48.9782 179.6164 265° West 477 549 33,000 -900 Descending FlightAware Transoceanic
10:57PM 48.9668 179.4247 265° West 477 549 33,000  Level FlightAware Transoceanic
10:58PM 48.9551 179.2331 265° West 477 549 33,000  Level FlightAware Transoceanic
10:59PM 48.9430 179.0416 264° West 477 549 33,000 960 Level FlightAware Transoceanic
10:59PM 48.9667 179.4333 265° West 454 522 34,000  Climbing Oakland Oceanic (ODAPS)
11:00PM 48.9307 178.8502 264° West 477 549 33,000 -540 Descending FlightAware Transoceanic
11:01PM 48.9180 178.6588 264° West 477 549 33,000 480 Level FlightAware Transoceanic
11:02PM 48.9307 178.8502 264° West 454 522 34,000 480 Climbing FlightAware Transoceanic
11:03PM 48.9180 178.6588 264° West 454 522 34,000  Level FlightAware Transoceanic
11:04PM 48.9051 178.4676 264° West 454 522 34,000  Level FlightAware Transoceanic
11:05PM 48.8918 178.2841 264° West 454 522 34,000  Level FlightAware Transoceanic
11:06PM 48.8782 178.0929 264° West 454 522 34,000  Level FlightAware Transoceanic
11:07PM 48.8642 177.9018 264° West 454 522 34,000  Level FlightAware Transoceanic
11:08PM 48.8500 177.7108 263° West 454 522 34,000  Level FlightAware Transoceanic
11:09PM 48.8355 177.5200 263° West 454 522 34,000  Level FlightAware Transoceanic
11:10PM 48.8206 177.3292 263° West 454 522 34,000  Level FlightAware Transoceanic
11:11PM 48.8055 177.1386 263° West 454 522 34,000  Level FlightAware Transoceanic
11:12PM 48.7900 176.9480 263° West 454 522 34,000  Level FlightAware Transoceanic
11:13PM 48.7742 176.7576 263° West 454 522 34,000  Level FlightAware Transoceanic
11:14PM 48.7580 176.5674 263° West 454 522 34,000  Level FlightAware Transoceanic
11:15PM 48.7416 176.3772 262° West 454 522 34,000  Level FlightAware Transoceanic
11:16PM 48.7249 176.1871 262° West 454 522 34,000  Level FlightAware Transoceanic
11:17PM 48.7078 175.9972 262° West 454 522 34,000  Level FlightAware Transoceanic
11:18PM 48.6905 175.8075 262° West 454 522 34,000  Level FlightAware Transoceanic
11:19PM 48.6728 175.6178 262° West 454 522 34,000  Level FlightAware Transoceanic
11:20PM 48.6548 175.4283 262° West 454 522 34,000  Level FlightAware Transoceanic
11:21PM 48.6365 175.2389 262° West 454 522 34,000  Level FlightAware Transoceanic
11:22PM 48.6179 175.0497 261° West 454 522 34,000  Level FlightAware Transoceanic
11:23PM 48.5990 174.8606 261° West 454 522 34,000  Level FlightAware Transoceanic
11:24PM 48.5798 174.6716 261° West 454 522 34,000  Level FlightAware Transoceanic
11:25PM 48.5602 174.4828 261° West 454 522 34,000  Level FlightAware Transoceanic
11:25PM 48.5667 174.5167 261° West 458 527 34,000  Level Oakland Oceanic (ODAPS)
11:26PM 48.5404 174.2941 261° West 454 522 34,000  Level FlightAware Transoceanic
11:27PM 48.5202 174.1056 261° West 454 522 34,000  Level FlightAware Transoceanic
11:28PM 48.4998 173.9173 261° West 454 522 34,000  Level FlightAware Transoceanic
11:29PM 48.4790 173.7290 260° West 454 522 34,000  Level FlightAware Transoceanic
11:30PM 48.4579 173.5410 260° West 454 522 34,000  Level FlightAware Transoceanic
11:31PM 48.4469 173.4237 260° West 458 527 34,000  Level FlightAware Transoceanic
11:32PM 48.4259 173.2421 260° West 458 527 34,000  Level FlightAware Transoceanic
11:33PM 48.4046 173.0606 260° West 458 527 34,000  Level FlightAware Transoceanic
11:34PM 48.3831 172.8793 260° West 458 527 34,000  Level FlightAware Transoceanic
11:35PM 48.3613 172.6981 260° West 458 527 34,000  Level FlightAware Transoceanic
11:36PM 48.3391 172.5170 260° West 458 527 34,000  Level FlightAware Transoceanic
11:37PM 48.3167 172.3362 259° West 458 527 34,000  Level FlightAware Transoceanic
11:38PM 48.2941 172.1555 259° West 458 527 34,000  Level FlightAware Transoceanic
11:39PM 48.2711 171.9749 259° West 458 527 34,000  Level FlightAware Transoceanic
11:40PM 48.2479 171.7945 259° West 458 527 34,000  Level FlightAware Transoceanic
11:41PM 48.2243 171.6143 259° West 458 527 34,000  Level FlightAware Transoceanic
11:42PM 48.2005 171.4342 259° West 458 527 34,000  Level FlightAware Transoceanic
11:43PM 48.1764 171.2544 259° West 458 527 34,000  Level FlightAware Transoceanic
11:43PM 48.1500 171.0000 258° West 474 545 34,000  Level Anchorage Center
11:44PM 48.1521 171.0746 258° West 458 527 34,000  Level FlightAware Transoceanic
11:45PM 48.1274 170.8951 258° West 458 527 34,000  Level FlightAware Transoceanic
11:46PM 48.1025 170.7157 258° West 458 527 34,000  Level FlightAware Transoceanic
11:47PM 48.0773 170.5365 258° West 458 527 34,000  Level FlightAware Transoceanic
11:48PM 48.0518 170.3575 258° West 458 527 34,000  Level FlightAware Transoceanic
11:49PM 48.0260 170.1787 258° West 458 527 34,000  Level FlightAware Transoceanic
11:49PM 48.0000 170.0000 256° West 470 541 34,000  Level Anchorage Center
11:50PM 47.9691 169.8163 256° West 474 545 34,000  Level FlightAware Transoceanic
11:51PM 47.9380 169.6328 256° West 474 545 34,000  Level FlightAware Transoceanic
11:52PM 47.9065 169.4495 256° West 474 545 34,000  Level FlightAware Transoceanic
11:53PM 47.8747 169.2665 255° West 474 545 34,000  Level FlightAware Transoceanic
11:53PM 47.8667 169.2333 255° West 467 537 34,000  Level Anchorage Center
11:54PM 47.8427 169.0836 255° West 474 545 34,000  Level FlightAware Transoceanic
11:55PM 47.8057 168.8750 255° West 470 541 34,000  Level FlightAware Transoceanic
11:56PM 47.7723 168.6883 255° West 470 541 34,000  Level FlightAware Transoceanic
11:57PM 47.7385 168.5019 255° West 470 541 34,000  Level FlightAware Transoceanic
11:58PM 47.7044 168.3157 255° West 470 541 34,000  Level FlightAware Transoceanic
11:59PM 47.6657 168.1167 255° West 467 537 34,000  Level FlightAware Transoceanic
12:00AM 47.6312 167.9314 254° West 467 537 34,000  Level FlightAware Transoceanic
12:01AM 47.5964 167.7464 254° West 467 537 34,000  Level FlightAware Transoceanic
12:02AM 47.5612 167.5616 254° West 467 537 34,000  Level FlightAware Transoceanic
12:03AM 47.5258 167.3771 254° West 467 537 34,000  Level FlightAware Transoceanic
12:04AM 47.4901 167.1928 254° West 467 537 34,000  Level FlightAware Transoceanic
12:05AM 47.4540 167.0088 254° West 467 537 34,000  Level FlightAware Transoceanic
12:06AM 47.4177 166.8250 254° West 467 537 34,000  Level FlightAware Transoceanic
12:07AM 47.3811 166.6415 254° West 467 537 34,000  Level FlightAware Transoceanic
12:08AM 47.3442 166.4582 253° West 467 537 34,000  Level FlightAware Transoceanic
12:09AM 47.3070 166.2752 253° West 467 537 34,000  Level FlightAware Transoceanic
12:10AM 47.2696 166.0925 253° West 467 537 34,000  Level FlightAware Transoceanic
12:10AM 47.2667 166.0500 253° West 465 535 34,000  Level Anchorage Center
12:11AM 47.2318 165.9100 253° West 467 537 34,000  Level FlightAware Transoceanic
12:12AM 47.1937 165.7278 253° West 467 537 34,000  Level FlightAware Transoceanic
12:13AM 47.1554 165.5458 253° West 467 537 34,000  Level FlightAware Transoceanic
12:14AM 47.1167 165.3641 253° West 467 537 34,000  Level FlightAware Transoceanic
12:15AM 47.0778 165.1827 252° West 467 537 34,000  Level FlightAware Transoceanic
12:16AM 47.0656 165.1057 252° West 465 535 34,000  Level FlightAware Transoceanic
12:17AM 47.0245 164.9177 252° West 465 535 34,000  Level FlightAware Transoceanic
12:18AM 46.9830 164.7299 252° West 465 535 34,000  Level FlightAware Transoceanic
12:19AM 46.9413 164.5425 252° West 465 535 34,000  Level FlightAware Transoceanic
12:20AM 46.8992 164.3554 252° West 465 535 34,000  Level FlightAware Transoceanic
12:21AM 46.8568 164.1686 252° West 465 535 34,000  Level FlightAware Transoceanic
12:22AM 46.8142 163.9820 251° West 465 535 34,000  Level FlightAware Transoceanic
12:23AM 46.7712 163.7958 251° West 465 535 34,000  Level FlightAware Transoceanic
12:24AM 46.7279 163.6098 251° West 465 535 34,000  Level FlightAware Transoceanic
12:25AM 46.6844 163.4242 251° West 465 535 34,000  Level FlightAware Transoceanic
12:26AM 46.6405 163.2388 251° West 465 535 34,000  Level FlightAware Transoceanic
12:27AM 46.5963 163.0538 251° West 465 535 34,000  Level FlightAware Transoceanic
12:28AM 46.5518 162.8691 251° West 465 535 34,000  Level FlightAware Transoceanic
12:29AM 46.5071 162.6846 251° West 465 535 34,000  Level FlightAware Transoceanic
12:30AM 46.4620 162.5005 250° West 465 535 34,000  Level FlightAware Transoceanic
12:31AM 46.4167 162.3167 236° Southwest 465 535 34,000  Level FlightAware Transoceanic
12:32AM 46.3478 162.1668 236° Southwest 465 535 34,000  Level FlightAware Transoceanic
12:33AM 46.2787 162.0173 236° Southwest 465 535 34,000  Level FlightAware Transoceanic
12:34AM 46.2094 161.8682 236° Southwest 465 535 34,000  Level FlightAware Transoceanic
12:35AM 46.1400 161.7194 236° Southwest 465 535 34,000  Level FlightAware Transoceanic
12:36AM 46.0703 161.5711 236° Southwest 465 535 34,000  Level FlightAware Transoceanic
12:37AM 46.0005 161.4231 236° Southwest 465 535 34,000  Level FlightAware Transoceanic
12:38AM 45.9305 161.2755 236° Southwest 465 535 34,000  Level FlightAware Transoceanic
12:39AM 45.8602 161.1282 236° Southwest 465 535 34,000  Level FlightAware Transoceanic
12:40AM 45.7898 160.9814 235° Southwest 465 535 34,000  Level FlightAware Transoceanic
12:41AM 45.7192 160.8349 235° Southwest 465 535 34,000  Level FlightAware Transoceanic
12:42AM 45.6484 160.6887 235° Southwest 465 535 34,000  Level FlightAware Transoceanic
12:43AM 45.5775 160.5430 235° Southwest 465 535 34,000  Level FlightAware Transoceanic
12:44AM 45.5063 160.3976 235° Southwest 465 535 34,000  Level FlightAware Transoceanic
12:45AM 45.4350 160.2525 235° Southwest 465 535 34,000  Level FlightAware Transoceanic
12:46AM 45.3634 160.1079 235° Southwest 465 535 34,000  Level FlightAware Transoceanic
12:47AM 45.2917 159.9636 235° Southwest 465 535 34,000  Level FlightAware Transoceanic
12:48AM 45.2198 159.8197 235° Southwest 465 535 34,000  Level FlightAware Transoceanic
12:49AM 45.1478 159.6761 234° Southwest 465 535 34,000  Level FlightAware Transoceanic
12:50AM 45.0755 159.5329 234° Southwest 465 535 34,000  Level FlightAware Transoceanic
12:51AM 45.0031 159.3900 234° Southwest 465 535 34,000  Level FlightAware Transoceanic
12:52AM 44.9305 159.2476 234° Southwest 465 535 34,000  Level FlightAware Transoceanic
12:53AM 44.8577 159.1055 234° Southwest 465 535 34,000  Level FlightAware Transoceanic
12:54AM 44.7848 158.9637 234° Southwest 465 535 34,000  Level FlightAware Transoceanic
12:55AM 44.7116 158.8223 234° Southwest 465 535 34,000  Level FlightAware Transoceanic
12:56AM 44.6383 158.6812 234° Southwest 465 535 34,000  Level FlightAware Transoceanic
12:57AM 44.5648 158.5406 234° Southwest 465 535 34,000  Level FlightAware Transoceanic
12:58AM 44.4912 158.4002 234° Southwest 465 535 34,000  Level FlightAware Transoceanic
12:59AM 44.4174 158.2603 233° Southwest 465 535 34,000  Level FlightAware Transoceanic
01:00AM 44.3434 158.1206 233° Southwest 465 535 34,000  Level FlightAware Transoceanic
01:01AM 44.2692 157.9814 233° Southwest 465 535 34,000  Level FlightAware Transoceanic
01:02AM 44.1949 157.8424 233° Southwest 465 535 34,000  Level FlightAware Transoceanic
01:03AM 44.1204 157.7039 233° Southwest 465 535 34,000  Level FlightAware Transoceanic
01:04AM 44.0457 157.5656 233° Southwest 465 535 34,000  Level FlightAware Transoceanic
01:05AM 43.9709 157.4278 233° Southwest 465 535 34,000  Level FlightAware Transoceanic
01:06AM 43.8959 157.2902 233° Southwest 465 535 34,000  Level FlightAware Transoceanic
01:07AM 43.8207 157.1531 233° Southwest 465 535 34,000  Level FlightAware Transoceanic
01:08AM 43.7454 157.0162 233° Southwest 465 535 34,000  Level FlightAware Transoceanic
01:09AM 43.6699 156.8797 233° Southwest 465 535 34,000  Level FlightAware Transoceanic
01:10AM 43.5943 156.7436 232° Southwest 465 535 34,000  Level FlightAware Transoceanic
01:11AM 43.5185 156.6078 232° Southwest 465 535 34,000  Level FlightAware Transoceanic
01:12AM 43.4425 156.4723 232° Southwest 465 535 34,000  Level FlightAware Transoceanic
01:13AM 43.3663 156.3372 232° Southwest 465 535 34,000  Level FlightAware Transoceanic
01:14AM 43.2901 156.2024 232° Southwest 465 535 34,000  Level FlightAware Transoceanic
01:15AM 43.2136 156.0680 232° Southwest 465 535 34,000  Level FlightAware Transoceanic
01:16AM 43.1370 155.9339 232° Southwest 465 535 34,000  Level FlightAware Transoceanic
01:17AM 43.0602 155.8001 232° Southwest 465 535 34,000  Level FlightAware Transoceanic
01:18AM 42.9742 155.6774 226° Southwest  Level FlightAware Approximate
01:19AM 42.8880 155.5550 226° Southwest  Level FlightAware Approximate
01:20AM 42.8949 155.5454 231° Southwest  Level FlightAware Approximate
01:21AM 42.8166 155.4137 231° Southwest  Level FlightAware Approximate
01:22AM 42.7382 155.2823 231° Southwest  Level FlightAware Approximate
01:23AM 42.6595 155.1513 231° Southwest  Level FlightAware Approximate
01:24AM 42.5808 155.0206 231° Southwest  Level FlightAware Approximate
01:25AM 42.5019 154.8902 231° Southwest  Level FlightAware Approximate
01:26AM 42.4229 154.7602 231° Southwest  Level FlightAware Approximate
01:27AM 42.3437 154.6304 230° Southwest  Level FlightAware Approximate
01:28AM 42.2643 154.5010 230° Southwest  Level FlightAware Approximate
01:29AM 42.1848 154.3720 230° Southwest  Level FlightAware Approximate
01:30AM 42.1052 154.2432 230° Southwest  Level FlightAware Approximate
01:31AM 42.0254 154.1148 230° Southwest  Level FlightAware Approximate
01:32AM 41.9455 153.9867 230° Southwest  Level FlightAware Approximate
01:33AM 41.8654 153.8589 230° Southwest  Level FlightAware Approximate
01:34AM 41.7852 153.7314 230° Southwest  Level FlightAware Approximate
01:35AM 41.7049 153.6043 230° Southwest  Level FlightAware Approximate
01:36AM 41.6244 153.4775 230° Southwest  Level FlightAware Approximate
01:37AM 41.5438 153.3510 230° Southwest  Level FlightAware Approximate
01:38AM 41.4630 153.2248 230° Southwest  Level FlightAware Approximate
01:39AM 41.3821 153.0989 229° Southwest  Level FlightAware Approximate
01:40AM 41.3011 152.9733 229° Southwest  Level FlightAware Approximate
01:41AM 41.2199 152.8481 229° Southwest  Level FlightAware Approximate
01:42AM 41.1386 152.7231 229° Southwest  Level FlightAware Approximate
01:43AM 41.0572 152.5985 229° Southwest  Level FlightAware Approximate
01:44AM 40.9756 152.4741 229° Southwest  Level FlightAware Approximate
01:45AM 40.8939 152.3501 229° Southwest  Level FlightAware Approximate
01:46AM 40.8121 152.2264 229° Southwest  Level FlightAware Approximate
01:47AM 40.7301 152.1030 229° Southwest  Level FlightAware Approximate
01:48AM 40.6480 151.9799 229° Southwest  Level FlightAware Approximate
01:49AM 40.5658 151.8571 229° Southwest  Level FlightAware Approximate
01:50AM 40.4834 151.7346 229° Southwest  Level FlightAware Approximate
01:51AM 40.4009 151.6124 228° Southwest  Level FlightAware Approximate
01:52AM 40.3183 151.4905 228° Southwest  Level FlightAware Approximate
01:53AM 40.2356 151.3689 228° Southwest  Level FlightAware Approximate
01:54AM 40.1527 151.2476 228° Southwest  Level FlightAware Approximate
01:55AM 40.0697 151.1266 228° Southwest  Level FlightAware Approximate
01:56AM 39.9866 151.0058 228° Southwest  Level FlightAware Approximate
01:57AM 39.9033 150.8854 228° Southwest  Level FlightAware Approximate
01:58AM 39.8200 150.7653 228° Southwest  Level FlightAware Approximate
01:59AM 39.7365 150.6455 228° Southwest  Level FlightAware Approximate
02:00AM 39.6528 150.5259 228° Southwest  Level FlightAware Approximate
02:01AM 39.5691 150.4066 228° Southwest  Level FlightAware Approximate
02:02AM 39.4852 150.2877 228° Southwest  Level FlightAware Approximate
02:03AM 39.4012 150.1690 228° Southwest  Level FlightAware Approximate
02:04AM 39.3171 150.0506 227° Southwest  Level FlightAware Approximate
02:05AM 39.2329 149.9325 227° Southwest  Level FlightAware Approximate
02:06AM 39.1489 149.8143 240° Southwest  Level FlightAware Approximate
02:07AM 39.0873 149.6751 240° Southwest  Level FlightAware Approximate
02:08AM 39.0255 149.5362 240° Southwest  Level FlightAware Approximate
02:09AM 38.9635 149.3976 240° Southwest  Level FlightAware Approximate
02:10AM 38.9014 149.2592 240° Southwest  Level FlightAware Approximate
02:11AM 38.8391 149.1210 240° Southwest  Level FlightAware Approximate
02:12AM 38.7767 148.9830 240° Southwest  Level FlightAware Approximate
02:13AM 38.7140 148.8454 240° Southwest  Level FlightAware Approximate
02:14AM 38.6513 148.7079 240° Southwest  Level FlightAware Approximate
02:15AM 38.5883 148.5707 240° Southwest  Level FlightAware Approximate
02:16AM 38.5252 148.4337 240° Southwest  Level FlightAware Approximate
02:17AM 38.4620 148.2970 239° Southwest  Level FlightAware Approximate
02:18AM 38.3985 148.1605 239° Southwest  Level FlightAware Approximate
02:19AM 38.3350 148.0243 239° Southwest  Level FlightAware Approximate
02:20AM 38.2712 147.8882 239° Southwest  Level FlightAware Approximate
02:21AM 38.2074 147.7525 239° Southwest  Level FlightAware Approximate
02:22AM 38.1433 147.6169 239° Southwest  Level FlightAware Approximate
02:23AM 38.0791 147.4816 239° Southwest  Level FlightAware Approximate
02:24AM 38.0148 147.3466 239° Southwest  Level FlightAware Approximate
02:25AM 37.9502 147.2118 239° Southwest  Level FlightAware Approximate
02:26AM 37.8856 147.0772 239° Southwest  Level FlightAware Approximate
02:27AM 37.8208 146.9428 239° Southwest  Level FlightAware Approximate
02:28AM 37.7558 146.8087 239° Southwest  Level FlightAware Approximate
02:29AM 37.6907 146.6748 238° Southwest  Level FlightAware Approximate
02:30AM 37.6254 146.5412 238° Southwest  Level FlightAware Approximate
02:31AM 37.5600 146.4078 238° Southwest  Level FlightAware Approximate
02:32AM 37.4944 146.2746 238° Southwest  Level FlightAware Approximate
02:33AM 37.4287 146.1417 238° Southwest  Level FlightAware Approximate
02:34AM 37.3628 146.0090 238° Southwest  Level FlightAware Approximate
02:35AM 37.2968 145.8765 238° Southwest  Level FlightAware Approximate
02:36AM 37.2307 145.7443 238° Southwest  Level FlightAware Approximate
02:37AM 37.1788 145.6057 263° West  Level FlightAware Approximate
02:38AM 37.1627 145.4510 263° West  Level FlightAware Approximate
02:39AM 37.1465 145.2964 263° West  Level FlightAware Approximate
02:40AM 37.1300 145.1418 262° West  Level FlightAware Approximate
02:41AM 37.1133 144.9873 262° West  Level FlightAware Approximate
02:42AM 37.0965 144.8329 262° West  Level FlightAware Approximate
02:43AM 37.0794 144.6785 262° West  Level FlightAware Approximate
02:44AM 37.0622 144.5242 262° West  Level FlightAware Approximate
02:45AM 37.0447 144.3700 262° West  Level FlightAware Approximate
02:46AM 37.0270 144.2159 262° West  Level FlightAware Approximate
02:47AM 37.0092 144.0618 262° West  Level FlightAware Approximate
02:48AM 36.9669 143.9192 237° Southwest  Level FlightAware Approximate
02:49AM 36.8993 143.7887 237° Southwest  Level FlightAware Approximate
02:50AM 36.8316 143.6583 237° Southwest  Level FlightAware Approximate
02:51AM 36.7637 143.5283 237° Southwest  Level FlightAware Approximate
02:52AM 36.6957 143.3984 237° Southwest  Level FlightAware Approximate
02:53AM 36.6276 143.2688 237° Southwest  Level FlightAware Approximate
02:54AM 36.5593 143.1394 237° Southwest  Level FlightAware Approximate
02:55AM 36.4909 143.0103 237° Southwest  Level FlightAware Approximate
02:56AM 36.4236 142.8804 238° Southwest  Level FlightAware Approximate
02:57AM 36.3579 142.7492 238° Southwest  Level FlightAware Approximate
02:58AM 36.2837 142.6256 230° Southwest  Level FlightAware Approximate
02:59AM 36.2153 142.4971 238° Southwest  Level FlightAware Approximate
03:00AM 36.1498 142.3663 234° Southwest  Level FlightAware Approximate
03:01AM 36.0770 142.2415 234° Southwest  Level FlightAware Approximate
03:02AM 36.0247 142.1062 260° West  Level FlightAware Approximate
03:03AM 35.9926 141.9581 252° West  Level FlightAware Approximate
03:04AM 35.9541 141.8120 252° West  Level FlightAware Approximate
03:04AM 36.1660 142.8680 253° West 390 449 34,000  Level FlightAware
03:05AM 35.9164 141.6657 253° West  Level FlightAware Approximate
03:05AM 36.1180 142.7780 237° Southwest 391 450 34,000  Level FlightAware
03:05AM 36.0690 142.6840 237° Southwest 386 444 33,300 -2,160 Descending FlightAware
03:06AM 36.0310 142.6120 237° Southwest 401 461 30,800 -3,180 Descending FlightAware
03:07AM 35.9900 142.5340 237° Southwest 392 451 29,100 -2,340 Descending FlightAware
03:08AM 35.9440 142.4480 237° Southwest 398 458 27,300 -2,040 Descending FlightAware
03:08AM 35.8990 142.3630 237° Southwest 402 463 26,100 -1,800 Descending FlightAware
03:09AM 35.8540 142.2790 237° Southwest 385 443 24,800 -1,980 Descending FlightAware
03:10AM 35.8170 142.2090 237° Southwest 339 390 23,500 -1,740 Descending FlightAware
03:10AM 35.7780 142.1370 236° Southwest 328 377 22,400 -1,680 Descending FlightAware
03:11AM 35.7470 142.0780 237° Southwest 326 375 21,200 -1,860 Descending FlightAware
03:12AM 35.7080 142.0050 237° Southwest 323 372 19,800 -1,740 Descending FlightAware
03:12AM 35.6780 141.9500 236° Southwest 319 367 18,800 -1,620 Descending FlightAware
03:13AM 35.6470 141.8920 237° Southwest 313 360 17,800 -1,680 Descending FlightAware
03:14AM 35.6120 141.8270 236° Southwest 308 354 16,600 -1,200 Descending FlightAware
03:15AM 35.5830 141.7580 243° Southwest 306 352 16,000 -480 Descending FlightAware
03:15AM 35.5780 141.6890 265° West 310 357 16,000 -540 Level FlightAware
03:16AM 35.5750 141.6140 267° West 315 362 15,300 -780 Descending FlightAware
03:17AM 35.5700 141.5390 265° West 300 345 14,900 -720 Descending FlightAware
03:17AM 35.5790 141.4670 279° West 297 342 14,300 -780 Descending FlightAware
03:18AM 35.6010 141.4170 298° West 296 341 13,900 -780 Descending FlightAware
03:19AM 35.6340 141.3500 301° West 297 342 13,300 -720 Descending FlightAware
03:19AM 35.6710 141.3250 331° Northwest 313 360 13,000 -720 Descending FlightAware
03:20AM 35.7240 141.2990 338° Northwest 310 357 12,500 -780 Descending FlightAware
03:21AM 35.7840 141.2690 338° Northwest 306 352 11,900 -900 Descending FlightAware
03:21AM 35.7980 141.2550 321° Northwest 300 345 11,600 -900 Descending FlightAware
03:22AM 35.8340 141.2000 309° West 293 337 11,100 -420 Descending FlightAware
03:22AM 35.8600 141.1600 309° West 288 331 11,100  Level FlightAware
03:23AM 35.8890 141.0930 298° West 280 322 11,100 -300 Level FlightAware
03:23AM 35.8890 141.0680 270° West 269 310 10,800 -1,200 Descending FlightAware
03:24AM 35.8760 141.0050 256° West 256 295 9,900 -1,380 Descending FlightAware
03:24AM 35.8690 140.9730 255° West 267 307 9,200 -1,200 Descending FlightAware
03:25AM 35.8570 140.9270 252° West 268 308 8,800 -900 Descending FlightAware
03:25AM 35.8470 140.8890 252° West 264 304 8,400 -900 Descending FlightAware
03:26AM 35.8380 140.8460 256° West 264 304 8,000 -900 Descending FlightAware
03:26AM 35.8450 140.8010 281° West 266 306 7,500 -900 Descending FlightAware
03:27AM 35.8530 140.7660 286° West 262 302 7,200 -600 Descending FlightAware
03:27AM 35.8610 140.7280 285° West 256 295 7,000 -480 Descending FlightAware
03:28AM 35.8690 140.6950 287° West 232 267 6,800 -600 Descending FlightAware
03:28AM 35.8780 140.6570 286° West 219 252 6,500 -600 Descending FlightAware
03:29AM 35.8890 140.6220 291° West 215 247 6,200 -660 Descending FlightAware
03:29AM 35.9040 140.5970 307° West 208 239 5,900 -660 Descending FlightAware
03:29AM 35.9220 140.5700 309° West 195 224 5,600 -780 Descending FlightAware
03:30AM 35.9350 140.5480 306° West 192 221 5,200 -1,140 Descending FlightAware
03:30AM 35.9500 140.5220 305° West 192 221 4,600 -1,320 Descending FlightAware
03:31AM 35.9620 140.4930 297° West 183 211 3,900 -1,320 Descending FlightAware
03:31AM 35.9710 140.4690 295° West 186 214 3,400 -900 Descending FlightAware
03:32AM 35.9760 140.4380 281° West 179 206 3,100 -360 Descending FlightAware
03:32AM 35.9770 140.4140 273° West 173 199 3,100 60 Level FlightAware
03:33AM 35.9720 140.3720 262° West 163 188 3,200 -120 Climbing FlightAware
03:33AM 35.9680 140.3570 252° West 160 184 3,000 -1,080 Descending FlightAware
03:34AM 35.9490 140.3190 238° Southwest 146 168 2,000 -660 Descending FlightAware
03:35AM 35.9250 140.3070 202° Southwest 132 152 2,000  Level FlightAware
03:35AM 35.9110 140.3050 187° South 133 153 2,000  Level FlightAware
03:36AM 35.8910 140.3160 156° South 148 170 2,000 -120 Level FlightAware
03:36AM 35.8750 140.3280 149° Southeast 137 158 1,900 -240 Descending FlightAware
03:37AM 35.8550 140.3420 150° Southeast 149 171 1,800 -900 Descending FlightAware
03:37AM 35.8360 140.3550 151° Southeast 146 168 1,000 -840 Descending FlightAware
03:38AM 35.8200 140.3670 149° Southeast 144 166 900 -180 Descending FlightAware